METARs

EEEI - Ämari Air Base

EEEI 201450Z 20004KT 9999 SCT004 BKN010 OVC031 02/02 Q1003 R24/2

EEKA - Kärdla

EEKA 201550Z 35011KT 9999 SCT021 03/01 Q1004

EEKE - Kuressaare

EEKE 210000Z AUTO 35002KT 7000NDV FEW041 M01/M01 Q1007

EEPU - Pärnu

EEPU 201350Z 15003KT 090V190 3600 BR BKN003 OVC004 01/01 Q1004

EETN - Lennart Meri Tallinn

EETN 202350Z 27005KT 9999 BKN009 OVC028 02/01 Q1005 R08/290195

EETU - Tartu

EETU 202350Z AUTO 00000KT 0350 R26/1200N FZFG NCD M03/M03 Q1006

Sign In

ATC Booking

currently no ATC Bookings...